Time;durP1;ratioP1;P1;durP2;ratioP2;P2;SDS_P1;SDS_P2;PMS_P1;PMS_P2;Temp;Humidity;BMP_temperature;BMP_pressure;BME280_temperature;BME280_humidity;BME280_pressure;Samples;Min_cycle;Max_cycle;Signal;HPM_P1;HPM_P2
2022/07/08 00:01:10;;;;;;;7.03;1.50;;;18.40;59.00;;;;;;5016530;28;20024;-63
2022/07/08 00:03:35;;;;;;;7.07;1.58;;;18.50;59.10;;;;;;5019546;28;20141;-63
2022/07/08 00:06:01;;;;;;;5.72;1.65;;;18.40;59.00;;;;;;5029030;28;20026;-63
2022/07/08 00:08:27;;;;;;;6.90;1.73;;;18.40;59.10;;;;;;5019955;28;20049;-63
2022/07/08 00:10:53;;;;;;;8.68;1.58;;;18.40;59.20;;;;;;5019720;28;20054;-64
2022/07/08 00:13:19;;;;;;;4.30;1.20;;;18.40;59.20;;;;;;5010472;28;20030;-63
2022/07/08 00:15:44;;;;;;;5.47;1.25;;;18.40;59.20;;;;;;5031286;28;20366;-63
2022/07/08 00:18:10;;;;;;;3.33;1.05;;;18.40;59.30;;;;;;5015245;28;20107;-64
2022/07/08 00:20:36;;;;;;;8.00;1.88;;;18.30;59.30;;;;;;5032795;28;20439;-64
2022/07/08 00:23:02;;;;;;;6.88;1.58;;;18.40;59.50;;;;;;5015224;28;20022;-63
2022/07/08 00:25:27;;;;;;;6.28;1.67;;;18.40;59.50;;;;;;5026996;28;20117;-63
2022/07/08 00:27:53;;;;;;;6.90;1.45;;;18.30;59.60;;;;;;5012907;28;20092;-64
2022/07/08 00:30:19;;;;;;;5.38;1.50;;;18.30;59.70;;;;;;5025739;28;20088;-64
2022/07/08 00:32:44;;;;;;;6.25;1.50;;;18.30;59.80;;;;;;5018161;28;20354;-63
2022/07/08 00:35:10;;;;;;;6.32;1.33;;;18.30;59.80;;;;;;5026611;28;20033;-64
2022/07/08 00:37:35;;;;;;;7.22;1.63;;;18.30;59.80;;;;;;5014322;28;20316;-63
2022/07/08 00:40:02;;;;;;;6.18;1.35;;;18.30;59.80;;;;;;5013094;28;20084;-63
2022/07/08 00:42:28;;;;;;;4.80;1.30;;;18.30;59.90;;;;;;5017478;28;20029;-64
2022/07/08 00:44:54;;;;;;;6.57;1.63;;;18.30;59.90;;;;;;5022558;28;20343;-63
2022/07/08 00:47:19;;;;;;;6.68;1.70;;;18.30;59.90;;;;;;5021245;28;20030;-63
2022/07/08 00:49:45;;;;;;;7.30;1.88;;;18.30;60.00;;;;;;5021474;28;20026;-63
2022/07/08 00:52:11;;;;;;;6.30;1.70;;;18.20;60.00;;;;;;5003335;28;20021;-63
2022/07/08 00:54:37;;;;;;;5.95;1.70;;;18.20;60.10;;;;;;5029462;28;20056;-63
2022/07/08 00:57:03;;;;;;;5.95;1.80;;;18.20;60.10;;;;;;5015747;28;20034;-64
2022/07/08 00:59:29;;;;;;;5.03;1.50;;;18.20;60.20;;;;;;5017363;28;20025;-64
2022/07/08 01:01:54;;;;;;;7.28;1.67;;;18.20;60.30;;;;;;5026232;28;20026;-63
2022/07/08 01:04:20;;;;;;;6.75;1.48;;;18.10;60.20;;;;;;5025130;28;20121;-63
2022/07/08 01:06:46;;;;;;;3.25;1.20;;;18.10;60.20;;;;;;5019257;28;20340;-64
2022/07/08 01:09:14;;;;;;;5.22;1.50;;;18.10;60.20;;;;;;5014200;28;20029;-63
2022/07/08 01:11:45;;;;;;;5.25;1.38;;;18.10;60.20;;;;;;5012018;28;20038;-63
2022/07/08 01:14:12;;;;;;;8.38;1.50;;;18.10;60.30;;;;;;5013190;28;20029;-63
2022/07/08 01:16:38;;;;;;;4.63;1.25;;;18.10;60.30;;;;;;5012463;28;20038;-63
2022/07/08 01:19:04;;;;;;;5.22;1.70;;;18.10;60.30;;;;;;5012325;28;19913;-64
2022/07/08 01:21:29;;;;;;;5.72;1.40;;;18.10;60.30;;;;;;5013619;28;20474;-63
2022/07/08 01:23:55;;;;;;;6.18;1.73;;;18.10;60.40;;;;;;5005389;28;20459;-63
2022/07/08 01:26:21;;;;;;;5.03;1.45;;;18.10;60.40;;;;;;5016873;28;20037;-64
2022/07/08 01:28:46;;;;;;;4.75;1.55;;;18.00;60.30;;;;;;5016156;28;20081;-63
2022/07/08 01:31:12;;;;;;;5.97;1.50;;;18.00;60.40;;;;;;5032924;28;20042;-63
2022/07/08 01:33:38;;;;;;;3.45;1.60;;;18.10;60.60;;;;;;5015982;28;20107;-64
2022/07/08 01:36:05;;;;;;;4.28;1.45;;;18.00;60.70;;;;;;5016618;28;20072;-64
2022/07/08 01:38:31;;;;;;;9.13;1.60;;;18.00;60.70;;;;;;5016682;28;20080;-63
2022/07/08 01:40:56;;;;;;;5.35;1.17;;;18.00;60.70;;;;;;5000619;28;20026;-63
2022/07/08 01:43:22;;;;;;;7.50;1.85;;;18.00;60.80;;;;;;5015123;28;20486;-63
2022/07/08 01:45:48;;;;;;;4.75;1.52;;;18.00;60.90;;;;;;5017087;28;20052;-64
2022/07/08 01:48:13;;;;;;;6.25;1.60;;;17.90;60.90;;;;;;5015135;28;20439;-63
2022/07/08 01:50:39;;;;;;;6.32;1.80;;;17.90;60.90;;;;;;5017829;28;20041;-63
2022/07/08 01:53:05;;;;;;;7.10;1.80;;;17.90;60.90;;;;;;5015478;28;20026;-63
2022/07/08 01:55:31;;;;;;;6.18;1.50;;;17.90;61.00;;;;;;5015460;28;20033;-63
2022/07/08 01:57:56;;;;;;;6.40;1.55;;;17.90;61.00;;;;;;5015554;28;20037;-63
2022/07/08 02:00:22;;;;;;;5.35;1.35;;;17.90;61.00;;;;;;5023845;28;20033;-63
2022/07/08 02:02:48;;;;;;;6.22;1.65;;;17.90;61.00;;;;;;5024186;28;20033;-63
2022/07/08 02:05:14;;;;;;;4.80;1.38;;;17.90;61.10;;;;;;5014866;28;20443;-63
2022/07/08 02:07:40;;;;;;;7.05;1.85;;;17.90;61.10;;;;;;5017576;28;20650;-64
2022/07/08 02:10:07;;;;;;;5.72;1.30;;;17.90;61.00;;;;;;5019480;28;20505;-63
2022/07/08 02:12:33;;;;;;;5.93;1.30;;;17.90;61.00;;;;;;5017081;28;20855;-63
2022/07/08 02:15:04;;;;;;;3.75;1.23;;;17.90;61.00;;;;;;5027058;28;20099;-63
2022/07/08 02:17:31;;;;;;;5.07;1.70;;;17.90;61.00;;;;;;5017410;28;20360;-63
2022/07/08 02:19:57;;;;;;;3.25;1.20;;;17.80;61.60;;;;;;5024672;28;20295;-63
2022/07/08 02:22:23;;;;;;;6.03;1.50;;;17.80;60.80;;;;;;5020324;28;20034;-63
2022/07/08 02:24:49;;;;;;;7.20;1.73;;;17.80;60.90;;;;;;5014852;28;20048;-63
2022/07/08 02:27:16;;;;;;;5.88;1.50;;;17.80;60.90;;;;;;5015992;28;20128;-63
2022/07/08 02:29:41;;;;;;;5.82;1.70;;;17.70;60.90;;;;;;5016417;28;20033;-64
2022/07/08 02:32:07;;;;;;;5.30;1.40;;;17.70;61.00;;;;;;5016679;28;20451;-64
2022/07/08 02:34:33;;;;;;;7.80;1.80;;;17.70;60.90;;;;;;5014481;28;20084;-64
2022/07/08 02:36:59;;;;;;;5.95;1.63;;;17.70;61.00;;;;;;4997429;28;20028;-63
2022/07/08 02:39:24;;;;;;;6.82;1.70;;;17.70;61.10;;;;;;5026574;28;20444;-63
2022/07/08 02:41:50;;;;;;;4.20;1.33;;;17.70;61.10;;;;;;5016341;28;20037;-63
2022/07/08 02:44:17;;;;;;;5.85;1.70;;;17.70;61.30;;;;;;5016253;28;20085;-63
2022/07/08 02:46:43;;;;;;;4.53;1.58;;;17.70;61.30;;;;;;5027470;28;20099;-63
2022/07/08 02:49:09;;;;;;;6.90;1.67;;;17.60;61.30;;;;;;5016344;28;20034;-64
2022/07/08 02:51:35;;;;;;;7.82;1.75;;;17.60;61.40;;;;;;5028016;28;20022;-63
2022/07/08 02:54:01;;;;;;;6.20;1.85;;;17.60;61.50;;;;;;5027758;28;20025;-63
2022/07/08 02:56:27;;;;;;;6.68;1.73;;;17.60;61.60;;;;;;5021240;28;20054;-63
2022/07/08 02:58:53;;;;;;;8.07;1.60;;;17.60;61.60;;;;;;5029049;28;20038;-63
2022/07/08 03:01:18;;;;;;;6.05;1.67;;;17.50;61.60;;;;;;5026341;28;20577;-64
2022/07/08 03:03:44;;;;;;;5.10;1.50;;;17.50;61.70;;;;;;5016624;28;20379;-64
2022/07/08 03:06:09;;;;;;;7.80;1.75;;;17.50;62.40;;;;;;5019626;28;20084;-63
2022/07/08 03:08:35;;;;;;;5.60;1.52;;;17.50;61.80;;;;;;5029266;28;20022;-63
2022/07/08 03:11:00;;;;;;;5.28;1.50;;;17.50;62.00;;;;;;5024263;28;20049;-63
2022/07/08 03:13:26;;;;;;;5.70;1.50;;;17.40;62.10;;;;;;5017358;28;20025;-64
2022/07/08 03:15:52;;;;;;;6.43;1.70;;;17.50;62.30;;;;;;5015682;28;20071;-63
2022/07/08 03:18:17;;;;;;;4.03;1.50;;;17.40;62.30;;;;;;5014892;28;20371;-63
2022/07/08 03:20:43;;;;;;;6.55;1.60;;;17.40;62.50;;;;;;5024629;28;20104;-63
2022/07/08 03:23:08;;;;;;;5.93;1.65;;;17.40;62.60;;;;;;5017940;28;20021;-63
2022/07/08 03:25:34;;;;;;;6.15;1.80;;;17.40;62.70;;;;;;5018277;28;20446;-63
2022/07/08 03:28:00;;;;;;;7.55;1.60;;;17.30;62.70;;;;;;5019978;28;20022;-63
2022/07/08 03:30:26;;;;;;;6.93;1.75;;;17.30;62.90;;;;;;5017217;28;20026;-63
2022/07/08 03:32:52;;;;;;;5.53;1.67;;;17.30;63.00;;;;;;5019601;28;20033;-63
2022/07/08 03:35:17;;;;;;;6.68;1.80;;;17.30;63.10;;;;;;5021852;28;20022;-63
2022/07/08 03:37:44;;;;;;;8.18;1.60;;;17.20;63.20;;;;;;5020617;28;20462;-63
2022/07/08 03:42:55;;;;;;;5.95;2.60;;;17.20;63.40;;;;;;5033294;28;20053;-63
2022/07/08 03:45:21;;;;;;;8.55;2.83;;;17.20;63.60;;;;;;5025806;28;20053;-63
2022/07/08 03:47:46;;;;;;;7.68;2.65;;;17.20;63.60;;;;;;5014496;28;20033;-64
2022/07/08 03:50:12;;;;;;;6.88;2.10;;;17.20;63.70;;;;;;5030067;28;20036;-63
2022/07/08 03:52:38;;;;;;;6.97;2.25;;;17.10;63.80;;;;;;5011957;28;20355;-63
2022/07/08 03:55:04;;;;;;;8.13;1.90;;;17.10;63.90;;;;;;5019384;28;20049;-63
2022/07/08 03:57:30;;;;;;;8.40;2.17;;;17.10;64.00;;;;;;5014154;28;20104;-63
2022/07/08 03:59:56;;;;;;;7.43;1.95;;;17.10;64.00;;;;;;5028946;28;20101;-63
2022/07/08 04:02:22;;;;;;;5.75;1.90;;;17.10;64.10;;;;;;5023174;28;20462;-63
2022/07/08 04:04:48;;;;;;;5.82;1.60;;;17.10;64.20;;;;;;5026024;28;20418;-63
2022/07/08 04:07:13;;;;;;;6.80;1.70;;;17.10;64.30;;;;;;5000299;28;20026;-64
2022/07/08 04:09:39;;;;;;;7.35;1.80;;;17.10;64.40;;;;;;5024322;28;20471;-63
2022/07/08 04:12:05;;;;;;;7.82;2.00;;;17.00;64.30;;;;;;5018596;28;20376;-63
2022/07/08 04:14:31;;;;;;;6.43;1.60;;;17.10;64.40;;;;;;5021020;28;20025;-64
2022/07/08 04:16:56;;;;;;;5.75;1.85;;;17.10;64.40;;;;;;5013160;28;20045;-65
2022/07/08 04:19:22;;;;;;;6.20;1.75;;;17.10;64.50;;;;;;5023524;28;20443;-64
2022/07/08 04:21:47;;;;;;;6.53;1.50;;;17.10;64.60;;;;;;5015350;28;20026;-63
2022/07/08 04:24:13;;;;;;;7.13;2.10;;;17.10;64.70;;;;;;5019779;28;20029;-63
2022/07/08 04:26:39;;;;;;;6.72;1.70;;;17.00;64.70;;;;;;5023914;28;20116;-63
2022/07/08 04:29:04;;;;;;;5.20;1.67;;;17.10;64.80;;;;;;5000450;28;20041;-63
2022/07/08 04:31:30;;;;;;;7.20;1.83;;;17.10;64.90;;;;;;5021594;28;20443;-63
2022/07/08 04:33:55;;;;;;;7.20;2.05;;;17.00;65.00;;;;;;5026845;28;20029;-63
2022/07/08 04:36:22;;;;;;;9.60;1.95;;;17.00;65.00;;;;;;5011387;28;20033;-63
2022/07/08 04:38:47;;;;;;;5.43;1.65;;;17.00;65.10;;;;;;5016672;28;20034;-63
2022/07/08 04:41:13;;;;;;;8.65;2.08;;;17.00;65.20;;;;;;5022802;28;20025;-63
2022/07/08 04:43:39;;;;;;;6.40;1.80;;;17.10;65.30;;;;;;5017552;28;20422;-63
2022/07/08 04:46:04;;;;;;;7.75;1.83;;;17.10;65.30;;;;;;5014453;28;20057;-63
2022/07/08 04:48:31;;;;;;;11.23;2.03;;;17.10;65.30;;;;;;5015200;28;20021;-63
2022/07/08 04:50:57;;;;;;;6.93;1.92;;;17.10;65.30;;;;;;5018322;28;20052;-63
2022/07/08 04:53:23;;;;;;;5.18;1.85;;;17.20;65.30;;;;;;5028246;28;20167;-63
2022/07/08 04:55:49;;;;;;;6.72;1.90;;;17.20;65.30;;;;;;5014214;28;20120;-63
2022/07/08 04:58:15;;;;;;;6.78;2.20;;;17.20;65.30;;;;;;5012966;28;20069;-63
2022/07/08 05:00:41;;;;;;;7.90;1.70;;;17.20;65.30;;;;;;4996866;28;20049;-63
2022/07/08 05:03:06;;;;;;;7.78;2.10;;;17.30;65.30;;;;;;5009901;28;20026;-63
2022/07/08 05:05:33;;;;;;;9.70;1.90;;;17.30;65.30;;;;;;5014401;28;20810;-63
2022/07/08 05:08:00;;;;;;;6.97;1.90;;;17.40;65.20;;;;;;5015390;28;20669;-63
2022/07/08 05:10:26;;;;;;;6.20;1.67;;;17.40;65.20;;;;;;5015226;28;20136;-64
2022/07/08 05:12:53;;;;;;;6.68;1.85;;;17.40;65.10;;;;;;5015338;28;20030;-64
2022/07/08 05:15:18;;;;;;;7.72;1.75;;;17.40;65.00;;;;;;5015652;28;20064;-64
2022/07/08 05:17:44;;;;;;;5.63;1.92;;;17.40;65.10;;;;;;5024345;28;20073;-64
2022/07/08 05:20:10;;;;;;;9.70;2.35;;;17.50;65.00;;;;;;5015105;28;20029;-63
2022/07/08 05:22:37;;;;;;;9.65;2.72;;;17.50;64.90;;;;;;5013703;28;20030;-64
2022/07/08 05:25:03;;;;;;;9.43;2.10;;;17.60;64.90;;;;;;5012877;28;20053;-63
2022/07/08 05:27:29;;;;;;;8.40;1.90;;;17.70;64.80;;;;;;5011445;28;20038;-63
2022/07/08 05:29:55;;;;;;;8.13;2.10;;;17.80;64.60;;;;;;5015669;28;20064;-63
2022/07/08 05:32:21;;;;;;;7.63;1.88;;;17.90;64.40;;;;;;5012610;28;20058;-63
2022/07/08 05:34:46;;;;;;;5.80;1.75;;;18.00;64.20;;;;;;5014606;28;20447;-64
2022/07/08 05:37:12;;;;;;;6.72;1.92;;;18.10;64.10;;;;;;5023376;28;20033;-64
2022/07/08 05:39:42;;;;;;;7.55;2.28;;;18.20;64.00;;;;;;5016857;28;20032;-64
2022/07/08 05:42:09;;;;;;;7.80;1.83;;;18.30;64.00;;;;;;5022961;28;20053;-63
2022/07/08 05:44:36;;;;;;;5.65;1.95;;;18.40;63.80;;;;;;5015195;28;20030;-63
2022/07/08 05:47:03;;;;;;;5.45;1.50;;;18.50;63.70;;;;;;5016346;28;20026;-64
2022/07/08 05:49:28;;;;;;;5.60;1.73;;;18.60;63.40;;;;;;5015618;28;20038;-64
2022/07/08 05:51:54;;;;;;;9.05;1.75;;;18.60;63.30;;;;;;5022845;28;20072;-64
2022/07/08 05:54:20;;;;;;;8.73;2.00;;;18.50;63.50;;;;;;5015116;28;20030;-63
2022/07/08 05:56:46;;;;;;;4.20;1.40;;;18.50;63.70;;;;;;5012698;28;20663;-63
2022/07/08 05:59:11;;;;;;;7.20;1.88;;;18.40;63.80;;;;;;5011259;28;20091;-64
2022/07/08 06:01:37;;;;;;;8.48;2.13;;;18.40;64.00;;;;;;5009837;28;20460;-64
2022/07/08 06:04:03;;;;;;;7.45;1.73;;;18.40;64.10;;;;;;5015882;28;20056;-64
2022/07/08 06:06:28;;;;;;;7.78;1.52;;;18.40;64.00;;;;;;5014344;28;20025;-64
2022/07/08 06:08:54;;;;;;;9.77;2.20;;;18.40;63.90;;;;;;5014056;28;20030;-64
2022/07/08 06:11:19;;;;;;;7.00;2.40;;;18.50;63.80;;;;;;5012555;28;20054;-64
2022/07/08 06:13:45;;;;;;;7.50;1.70;;;18.60;63.70;;;;;;5012225;28;20064;-64
2022/07/08 06:16:11;;;;;;;7.57;1.60;;;18.70;63.60;;;;;;5014772;28;20045;-64
2022/07/08 06:18:37;;;;;;;8.82;1.90;;;18.80;63.60;;;;;;5015594;28;20467;-64
2022/07/08 06:21:02;;;;;;;12.48;1.77;;;18.80;63.30;;;;;;5016756;28;20470;-63
2022/07/08 06:23:28;;;;;;;5.00;1.40;;;18.90;63.20;;;;;;5016415;28;20030;-64
2022/07/08 06:25:54;;;;;;;9.38;1.98;;;18.90;63.00;;;;;;5018315;28;20458;-63
2022/07/08 06:28:19;;;;;;;7.05;1.65;;;19.00;63.00;;;;;;5016034;28;20041;-64
2022/07/08 06:30:45;;;;;;;7.85;1.90;;;19.10;63.00;;;;;;5016156;28;20057;-64
2022/07/08 06:33:11;;;;;;;8.57;1.75;;;19.20;62.90;;;;;;5017178;28;20017;-64
2022/07/08 06:35:36;;;;;;;6.55;1.58;;;19.20;62.70;;;;;;5015623;28;20399;-63
2022/07/08 06:38:02;;;;;;;5.60;1.50;;;19.40;62.70;;;;;;5016315;28;20026;-63
2022/07/08 06:40:28;;;;;;;7.28;1.75;;;19.40;62.50;;;;;;5018917;28;20022;-63
2022/07/08 06:42:54;;;;;;;6.32;1.40;;;19.50;62.30;;;;;;5026142;28;20046;-64
2022/07/08 06:45:20;;;;;;;7.15;1.88;;;19.50;62.10;;;;;;5016567;28;20494;-63
2022/07/08 06:47:46;;;;;;;5.43;1.92;;;19.50;62.10;;;;;;5016164;28;20425;-63
2022/07/08 06:50:11;;;;;;;5.85;1.63;;;19.50;62.00;;;;;;5016319;28;20136;-64
2022/07/08 06:52:37;;;;;;;7.85;1.60;;;19.40;62.00;;;;;;5024504;28;20060;-63
2022/07/08 06:55:03;;;;;;;8.82;1.80;;;19.40;62.30;;;;;;5012540;28;20034;-64
2022/07/08 06:57:29;;;;;;;6.65;1.73;;;19.40;62.50;;;;;;5014202;28;20140;-64
2022/07/08 06:59:55;;;;;;;6.00;1.60;;;19.40;62.50;;;;;;5023129;28;20022;-64
2022/07/08 07:02:21;;;;;;;8.70;1.83;;;19.40;62.50;;;;;;5014031;28;20041;-63
2022/07/08 07:04:46;;;;;;;9.20;1.95;;;19.40;62.50;;;;;;5016821;28;20080;-64
2022/07/08 07:07:12;;;;;;;8.45;2.47;;;19.40;62.40;;;;;;5016098;28;20037;-63
2022/07/08 07:09:41;;;;;;;5.63;1.60;;;19.40;62.30;;;;;;5013566;28;20077;-63
2022/07/08 07:12:07;;;;;;;7.85;2.25;;;19.40;62.30;;;;;;5012898;28;20034;-63
2022/07/08 07:14:33;;;;;;;9.82;1.63;;;19.40;62.30;;;;;;5013873;28;20038;-63
2022/07/08 07:16:59;;;;;;;9.85;2.25;;;19.50;62.30;;;;;;5012252;28;21597;-64
2022/07/08 07:19:26;;;;;;;7.32;1.83;;;19.60;62.30;;;;;;5012838;28;20034;-63
2022/07/08 07:21:52;;;;;;;10.95;1.90;;;19.70;62.20;;;;;;5013082;28;20026;-64
2022/07/08 07:24:18;;;;;;;10.73;1.73;;;19.80;61.90;;;;;;5013959;28;20037;-64
2022/07/08 07:26:44;;;;;;;6.82;1.80;;;19.90;61.70;;;;;;5013530;28;20343;-63
2022/07/08 07:29:09;;;;;;;7.25;1.80;;;19.90;61.60;;;;;;5014701;28;20099;-63
2022/07/08 07:31:36;;;;;;;4.22;1.63;;;19.90;61.60;;;;;;5020206;28;20037;-62
2022/07/08 07:34:02;;;;;;;6.68;2.00;;;19.90;61.70;;;;;;5014673;28;20455;-63
2022/07/08 07:36:28;;;;;;;6.72;1.67;;;20.20;61.20;;;;;;5015898;28;20030;-63
2022/07/08 07:38:54;;;;;;;8.48;1.73;;;20.70;60.50;;;;;;5016132;28;20038;-63
2022/07/08 07:41:19;;;;;;;7.68;1.77;;;21.00;59.50;;;;;;5014781;28;20329;-63
2022/07/08 07:43:45;;;;;;;8.60;1.77;;;21.20;59.10;;;;;;5014889;28;20041;-64
2022/07/08 07:46:10;;;;;;;5.72;1.73;;;21.30;59.00;;;;;;5015381;28;20355;-63
2022/07/08 07:48:36;;;;;;;5.43;1.50;;;21.30;58.70;;;;;;5014273;28;20088;-63
2022/07/08 07:51:02;;;;;;;8.43;1.60;;;21.20;58.90;;;;;;4998252;28;20029;-63
2022/07/08 07:53:27;;;;;;;6.13;1.92;;;21.10;59.00;;;;;;5014495;28;20040;-63
2022/07/08 07:55:53;;;;;;;6.15;1.77;;;21.20;58.80;;;;;;5013929;28;20106;-63
2022/07/08 07:58:20;;;;;;;5.82;1.67;;;21.30;58.60;;;;;;5014213;28;20032;-63
2022/07/08 08:00:45;;;;;;;7.70;1.60;;;21.20;58.50;;;;;;5015789;28;20097;-63
2022/07/08 08:03:11;;;;;;;6.40;1.60;;;21.30;58.60;;;;;;5012506;28;20146;-63
2022/07/08 08:05:38;;;;;;;7.70;1.60;;;21.40;58.30;;;;;;5013681;28;20041;-63
2022/07/08 08:08:05;;;;;;;8.10;2.03;;;21.40;57.80;;;;;;5014871;28;20049;-63
2022/07/08 08:10:30;;;;;;;6.63;1.63;;;21.60;57.50;;;;;;5013571;28;20444;-63
2022/07/08 08:12:56;;;;;;;3.60;1.38;;;22.00;57.00;;;;;;5014411;28;20061;-63
2022/07/08 08:15:23;;;;;;;6.63;1.75;;;22.40;56.10;;;;;;5017226;28;20037;-63
2022/07/08 08:17:48;;;;;;;4.88;1.48;;;22.70;55.30;;;;;;5019155;28;20041;-63
2022/07/08 08:20:14;;;;;;;4.30;1.67;;;22.80;54.50;;;;;;5015686;28;20091;-64
2022/07/08 08:22:40;;;;;;;5.38;1.42;;;22.90;54.20;;;;;;5029317;28;20025;-64
2022/07/08 08:25:06;;;;;;;7.47;1.98;;;23.10;53.50;;;;;;5023817;28;20025;-64
2022/07/08 08:27:32;;;;;;;9.45;1.70;;;23.10;53.40;;;;;;5021397;28;20462;-63
2022/07/08 08:29:57;;;;;;;9.13;1.75;;;23.10;53.50;;;;;;5019253;28;20026;-64
2022/07/08 08:32:23;;;;;;;6.57;1.50;;;23.00;53.50;;;;;;5018841;28;20473;-64
2022/07/08 08:34:49;;;;;;;5.90;1.80;;;22.90;53.80;;;;;;5011313;28;20030;-64
2022/07/08 08:37:15;;;;;;;6.95;1.95;;;22.90;53.90;;;;;;5028104;28;20107;-64
2022/07/08 08:39:41;;;;;;;8.65;1.90;;;22.90;53.80;;;;;;5026281;28;20102;-64
2022/07/08 08:42:07;;;;;;;6.43;1.80;;;22.90;53.90;;;;;;5022330;28;20463;-64
2022/07/08 08:44:33;;;;;;;8.02;1.58;;;22.80;53.90;;;;;;5023952;28;20053;-64
2022/07/08 08:47:03;;;;;;;8.10;1.85;;;22.70;53.90;;;;;;5033046;28;20029;-61
2022/07/08 08:49:33;;;;;;;10.25;1.83;;;22.70;53.90;;;;;;5025091;28;20041;-62
2022/07/08 08:52:01;;;;;;;6.07;1.58;;;22.90;53.80;;;;;;5034344;28;20045;-61
2022/07/08 08:54:28;;;;;;;4.90;1.25;;;22.90;53.60;;;;;;5016864;28;20113;-62
2022/07/08 08:56:54;;;;;;;6.05;1.70;;;22.90;53.50;;;;;;5016801;28;20034;-62
2022/07/08 08:59:20;;;;;;;7.65;1.65;;;22.90;53.80;;;;;;5019364;28;20029;-62
2022/07/08 09:01:46;;;;;;;4.50;1.30;;;22.90;53.90;;;;;;5029097;28;20108;-62
2022/07/08 09:04:12;;;;;;;6.68;1.70;;;22.90;54.00;;;;;;5014568;28;20462;-61
2022/07/08 09:06:39;;;;;;;7.90;1.80;;;22.80;54.20;;;;;;5026295;28;20040;-62
2022/07/08 09:09:05;;;;;;;4.82;1.20;;;22.70;54.50;;;;;;5014013;28;20358;-62
2022/07/08 09:11:32;;;;;;;6.88;1.92;;;22.70;54.70;;;;;;5014371;28;20113;-61
2022/07/08 09:14:20;;;;;;;4.97;1.63;;;22.70;54.90;;;;;;5008369;28;20059;-62
2022/07/08 09:17:17;;;;;;;8.02;1.55;;;22.80;55.00;;;;;;5020758;28;20029;-62
2022/07/08 09:19:47;;;;;;;7.40;1.50;;;22.80;55.00;;;;;;5015949;28;20042;-62
2022/07/08 09:22:13;;;;;;;4.35;1.52;;;22.80;54.80;;;;;;5021635;28;20379;-62
2022/07/08 09:24:39;;;;;;;5.22;1.58;;;22.80;54.70;;;;;;5011026;28;20030;-62
2022/07/08 09:27:09;;;;;;;6.65;1.63;;;22.80;54.90;;;;;;5008371;28;20340;-61
2022/07/08 09:29:38;;;;;;;5.22;1.50;;;22.80;55.00;;;;;;5011338;28;20048;-61
2022/07/08 09:32:11;;;;;;;5.63;1.58;;;22.90;55.00;;;;;;5013456;28;20054;-61
2022/07/08 09:34:37;;;;;;;7.00;1.70;;;23.00;55.10;;;;;;4991326;28;20451;-62
2022/07/08 09:37:12;;;;;;;6.10;1.60;;;23.30;54.60;;;;;;5010315;28;20438;-62
2022/07/08 09:39:38;;;;;;;6.25;1.55;;;23.70;54.10;;;;;;5013015;28;20033;-62
2022/07/08 09:42:09;;;;;;;5.78;1.50;;;24.30;53.30;;;;;;5014851;28;20040;-61
2022/07/08 09:44:38;;;;;;;6.72;1.70;;;24.80;53.00;;;;;;5010311;28;20022;-62
2022/07/08 09:47:10;;;;;;;5.50;1.75;;;25.30;51.80;;;;;;5028652;28;20121;-62
2022/07/08 09:49:42;;;;;;;6.00;1.70;;;25.70;51.30;;;;;;5002831;28;20109;-62
2022/07/08 09:52:27;;;;;;;7.03;2.17;;;25.90;51.00;;;;;;5030689;28;20029;-62
2022/07/08 09:55:03;;;;;;;5.38;1.65;;;26.10;51.10;;;;;;5015735;28;20069;-62
2022/07/08 09:57:29;;;;;;;3.95;1.45;;;26.10;50.10;;;;;;5015633;28;20036;-62
2022/07/08 09:59:56;;;;;;;4.80;1.58;;;26.30;49.80;;;;;;5015741;28;20026;-62
2022/07/08 10:02:22;;;;;;;6.60;1.80;;;26.40;49.60;;;;;;5015997;28;20022;-62
2022/07/08 10:04:51;;;;;;;6.20;1.77;;;26.30;49.30;;;;;;5012184;28;20471;-62
2022/07/08 10:07:17;;;;;;;5.93;1.45;;;25.90;49.80;;;;;;5015688;28;20088;-62
2022/07/08 10:09:43;;;;;;;3.40;1.40;;;25.50;49.50;;;;;;5015248;28;20415;-62
2022/07/08 10:12:12;;;;;;;5.45;1.40;;;25.10;50.10;;;;;;5015794;28;20034;-61
2022/07/08 10:14:38;;;;;;;5.63;1.80;;;24.80;50.70;;;;;;5005330;28;20519;-70
2022/07/08 10:17:08;;;;;;;7.43;1.90;;;24.70;51.10;;;;;;5020311;28;20111;-69
2022/07/08 10:19:38;;;;;;;7.97;1.38;;;24.70;51.20;;;;;;5017624;28;20072;-70
2022/07/08 10:22:07;;;;;;;5.63;1.58;;;24.60;51.20;;;;;;5016240;28;20021;-70
2022/07/08 10:24:38;;;;;;;5.22;1.75;;;24.70;51.10;;;;;;5026838;28;20033;-69
2022/07/08 10:27:04;;;;;;;;;;;24.70;51.20;;;;;;5013290;28;20151;-70
2022/07/08 10:29:31;;;;;;;4.47;1.30;;;24.90;51.20;;;;;;5015384;28;19975;-70
2022/07/08 10:31:58;;;;;;;7.15;1.50;;;25.10;50.80;;;;;;5008200;28;20041;-68
2022/07/08 10:34:36;;;;;;;5.68;1.60;;;25.30;50.60;;;;;;5010017;28;20856;-68
2022/07/08 10:37:03;;;;;;;5.82;1.63;;;25.30;50.10;;;;;;4998696;28;20034;-68
2022/07/08 10:39:39;;;;;;;5.70;1.45;;;25.30;50.00;;;;;;5010911;28;20030;-68
2022/07/08 10:42:10;;;;;;;5.78;1.48;;;25.30;50.20;;;;;;5015500;28;20418;-68
2022/07/08 10:44:44;;;;;;;6.57;1.70;;;25.10;50.40;;;;;;5030007;28;20441;-68
2022/07/08 10:47:10;;;;;;;4.65;1.80;;;24.90;50.70;;;;;;5003005;28;20037;-68
2022/07/08 10:49:46;;;;;;;5.03;1.73;;;24.80;50.90;;;;;;5014440;28;20034;-68
2022/07/08 10:52:12;;;;;;;6.97;1.60;;;24.70;51.20;;;;;;5015024;28;20036;-68
2022/07/08 10:54:38;;;;;;;8.50;2.67;;;24.90;51.10;;;;;;5016049;28;20057;-68
2022/07/08 10:57:08;;;;;;;7.07;2.05;;;25.00;50.90;;;;;;5014465;28;20035;-68
2022/07/08 10:59:36;;;;;;;8.30;1.60;;;25.10;50.60;;;;;;5012585;28;20021;-68
2022/07/08 11:02:03;;;;;;;5.75;1.52;;;25.20;50.70;;;;;;5015608;28;20022;-68
2022/07/08 11:04:35;;;;;;;6.72;1.63;;;25.20;50.40;;;;;;5026022;28;20029;-67
2022/07/08 11:07:27;;;;;;;6.40;1.55;;;25.10;50.60;;;;;;5015903;28;20037;-67
2022/07/08 11:10:11;;;;;;;4.10;1.38;;;25.00;50.80;;;;;;5009467;28;20056;-67
2022/07/08 11:12:46;;;;;;;7.45;1.65;;;24.90;50.90;;;;;;5011460;28;20037;-67
2022/07/08 11:15:18;;;;;;;5.63;1.52;;;24.90;50.70;;;;;;5010856;28;20018;-66
2022/07/08 11:17:49;;;;;;;5.60;1.60;;;24.90;50.90;;;;;;5012722;28;20458;-67
2022/07/08 11:20:18;;;;;;;4.03;1.23;;;24.80;51.20;;;;;;5012141;28;20033;-68
2022/07/08 11:22:45;;;;;;;9.15;1.52;;;24.70;51.30;;;;;;5007112;28;20026;-68
2022/07/08 11:25:14;;;;;;;4.38;1.40;;;24.60;51.60;;;;;;5004472;28;20130;-68
2022/07/08 11:27:41;;;;;;;4.40;1.73;;;24.90;52.00;;;;;;5014241;28;20026;-67
2022/07/08 11:30:12;;;;;;;5.38;1.80;;;25.20;50.80;;;;;;5007172;28;20025;-68
2022/07/08 11:32:39;;;;;;;;;;;25.30;50.40;;;;;;5027040;28;20034;-67
2022/07/08 11:35:05;;;;;;;5.75;1.70;;;25.40;50.50;;;;;;5035629;28;19909;-68
2022/07/08 11:37:33;;;;;;;4.75;1.67;;;25.20;50.50;;;;;;5014044;28;20068;-68
2022/07/08 11:40:01;;;;;;;5.07;1.55;;;25.10;50.70;;;;;;5015534;28;20030;-68
2022/07/08 11:42:26;;;;;;;5.10;1.85;;;25.20;50.70;;;;;;5015691;28;20443;-68
2022/07/08 11:44:52;;;;;;;6.95;1.73;;;25.40;50.60;;;;;;5015474;28;20041;-69
2022/07/08 11:47:22;;;;;;;5.55;1.88;;;25.30;50.80;;;;;;5016139;28;20033;-69
2022/07/08 11:49:49;;;;;;;6.93;2.22;;;25.20;50.90;;;;;;5014438;28;20084;-69
2022/07/08 11:52:17;;;;;;;8.05;1.77;;;25.30;50.70;;;;;;4998592;28;20050;-69
2022/07/08 11:54:47;;;;;;;5.35;1.95;;;25.50;50.50;;;;;;5016013;28;20030;-69
2022/07/08 11:57:13;;;;;;;7.77;1.93;;;25.50;50.60;;;;;;5016093;28;20398;-69
2022/07/08 11:59:39;;;;;;;7.25;1.73;;;25.50;50.90;;;;;;5004542;28;20088;-68
2022/07/08 12:02:05;;;;;;;5.82;1.77;;;25.30;51.30;;;;;;5014841;28;20021;-69
2022/07/08 12:04:32;;;;;;;7.10;2.08;;;25.30;51.60;;;;;;5014914;28;20025;-68
2022/07/08 12:07:00;;;;;;;4.28;1.45;;;25.20;51.60;;;;;;5014273;28;20030;-68
2022/07/08 12:09:29;;;;;;;5.55;1.90;;;25.30;51.70;;;;;;5010679;28;20058;-68
2022/07/08 12:11:57;;;;;;;3.88;1.65;;;25.40;51.70;;;;;;5013803;28;20033;-68
2022/07/08 12:14:23;;;;;;;4.88;1.70;;;25.30;51.70;;;;;;5022307;28;20033;-69
2022/07/08 12:16:56;;;;;;;5.00;1.45;;;25.20;52.40;;;;;;5032771;28;20040;-69
2022/07/08 12:19:25;;;;;;;6.18;1.90;;;25.30;52.00;;;;;;5010045;28;20026;-68
2022/07/08 12:21:52;;;;;;;6.15;2.03;;;25.50;51.90;;;;;;5015940;28;20032;-68
2022/07/08 12:24:24;;;;;;;5.10;1.50;;;25.70;51.80;;;;;;5012414;28;20381;-68
2022/07/08 12:27:00;;;;;;;5.30;1.58;;;25.70;51.80;;;;;;5025865;28;20091;-68
2022/07/08 12:29:32;;;;;;;5.22;1.63;;;25.60;52.00;;;;;;5018141;28;20071;-69
2022/07/08 12:31:58;;;;;;;5.55;1.85;;;25.50;51.90;;;;;;5012357;28;20040;-68
2022/07/08 12:34:25;;;;;;;5.30;1.70;;;25.50;52.10;;;;;;5030061;28;20104;-67
2022/07/08 12:36:51;;;;;;;7.57;2.10;;;25.50;52.20;;;;;;5024408;28;20033;-68
2022/07/08 12:39:20;;;;;;;5.75;1.67;;;25.40;52.30;;;;;;5020377;28;20069;-67
2022/07/08 12:41:59;;;;;;;8.18;2.22;;;25.30;52.50;;;;;;5034498;28;20382;-67
2022/07/08 12:44:41;;;;;;;5.40;1.70;;;25.20;52.60;;;;;;5034926;28;20025;-67
2022/07/08 12:47:11;;;;;;;6.38;2.33;;;25.00;52.90;;;;;;5035235;28;20049;-67
2022/07/08 12:49:39;;;;;;;6.13;1.95;;;24.90;53.00;;;;;;5019290;28;20088;-67